Time;durP1;ratioP1;P1;durP2;ratioP2;P2;SDS_P1;SDS_P2;PMS_P1;PMS_P2;Temp;Humidity;BMP_temperature;BMP_pressure;BME280_temperature;BME280_humidity;BME280_pressure;Samples;Min_cycle;Max_cycle;Signal;HPM_P1;HPM_P2
2023/03/31 00:00:53;;;;;;;;;;;;;;;3.46;57.52;99940.13;5094189;28;818;-71
2023/03/31 00:03:22;;;;;;;;;;;;;;;3.43;57.88;99950.94;5094086;28;1897;-71
2023/03/31 00:05:54;;;;;;;;;;;;;;;3.43;57.79;99950.94;5094119;28;845;-71
2023/03/31 00:08:21;;;;;;;;;;;;;;;3.47;57.57;99944.44;5094345;28;928;-71
2023/03/31 00:10:48;;;;;;;;;;;;;;;3.48;58.02;99935.09;5094783;28;822;-70
2023/03/31 00:13:14;;;;;;;;;;;;;;;3.46;57.61;99939.34;5094197;28;865;-71
2023/03/31 00:15:41;;;;;;;;;;;;;;;3.35;58.69;99935.50;5094030;28;795;-71
2023/03/31 00:18:08;;;;;;;;;;;;;;;3.30;58.62;99933.03;5093850;28;806;-70
2023/03/31 00:20:36;;;;;;;;;;;;;;;3.18;60.05;99928.44;5093774;28;969;-70
2023/03/31 00:23:05;;;;;;;;;;;;;;;3.14;59.87;99925.63;5093665;28;2010;-71
2023/03/31 00:25:31;;;;;;;;;;;;;;;2.69;61.69;99884.97;5092516;28;1273;-70
2023/03/31 00:27:58;;;;;;;;;;;;;;;2.63;62.24;99904.31;5093890;28;806;-70
2023/03/31 00:30:24;;;;;;;;;;;;;;;2.71;61.97;99915.44;5092571;28;1323;-70
2023/03/31 00:32:51;;;;;;;;;;;;;;;2.80;61.42;99921.56;5093612;28;826;-71
2023/03/31 00:35:18;;;;;;;;;;;;;;;2.84;61.67;99915.06;5093837;28;803;-71
2023/03/31 00:37:44;;;;;;;;;;;;;;;2.71;61.78;99909.97;5093780;28;1051;-70
2023/03/31 00:40:11;;;;;;;;;;;;;;;2.56;62.75;99909.59;5093406;28;901;-71
2023/03/31 00:42:40;;;;;;;;;;;;;;;2.59;62.86;99900.69;5093328;28;1955;-71
2023/03/31 00:45:27;;;;;;;;;;;;;;;2.61;62.94;99897.63;5093573;28;815;-71
2023/03/31 00:47:57;;;;;;;;;;;;;;;2.32;63.65;99885.09;5093455;28;1230;-70
2023/03/31 00:50:28;;;;;;;;;;;;;;;2.04;65.22;99883.09;5093198;28;834;-70
2023/03/31 00:52:56;;;;;;;;;;;;;;;1.95;65.28;99883.22;5093470;28;814;-71
2023/03/31 00:55:27;;;;;;;;;;;;;;;1.90;65.72;99877.19;5091693;28;1320;-71
2023/03/31 00:57:54;;;;;;;;;;;;;;;1.93;65.44;99865.63;5093053;28;802;-70
2023/03/31 01:00:22;;;;;;;;;;;;;;;1.92;65.02;99874.94;5093151;28;838;-71
2023/03/31 01:02:54;;;;;;;;;;;;;;;1.91;65.54;99871.41;5092860;28;1893;-71
2023/03/31 01:05:28;;;;;;;;;;;;;;;1.98;66.58;99862.66;5092994;28;861;-71
2023/03/31 01:07:55;;;;;;;;;;;;;;;2.05;66.94;99873.78;5093237;28;873;-70
2023/03/31 01:10:22;;;;;;;;;;;;;;;2.06;67.05;99866.41;5092944;28;934;-71
2023/03/31 01:12:50;;;;;;;;;;;;;;;1.88;67.71;99863.13;5092848;28;889;-72
2023/03/31 01:15:17;;;;;;;;;;;;;;;1.79;68.81;99863.25;5092895;28;834;-71
2023/03/31 01:17:44;;;;;;;;;;;;;;;1.58;69.53;99863.34;5092668;28;825;-71
2023/03/31 01:20:13;;;;;;;;;;;;;;;1.47;71.05;99860.28;5092730;28;872;-70
2023/03/31 01:22:48;;;;;;;;;;;;;;;1.61;71.59;99857.25;5092281;28;1906;-70
2023/03/31 01:25:29;;;;;;;;;;;;;;;1.94;70.32;99856.28;5092572;28;853;-70
2023/03/31 01:28:14;;;;;;;;;;;;;;;2.04;69.76;99850.38;5091289;28;1481;-71
2023/03/31 01:30:59;;;;;;;;;;;;;;;2.15;69.04;99842.50;5092479;28;786;-72
2023/03/31 01:33:31;;;;;;;;;;;;;;;2.23;68.07;99847.81;5092754;28;845;-70
2023/03/31 01:36:13;;;;;;;;;;;;;;;2.18;69.12;99845.34;5092609;28;798;-71
2023/03/31 01:38:51;;;;;;;;;;;;;;;2.11;68.93;99847.06;5093192;28;863;-71
2023/03/31 01:41:36;;;;;;;;;;;;;;;2.10;69.04;99840.03;5090934;28;1276;-70
2023/03/31 01:44:21;;;;;;;;;;;;;;;2.03;69.42;99838.69;5092322;28;864;-72
2023/03/31 01:47:12;;;;;;;;;;;;;;;1.97;69.57;99833.81;5092165;28;873;-71
2023/03/31 01:49:47;;;;;;;;;;;;;;;2.05;68.98;99832.91;5092132;28;794;-71
2023/03/31 01:52:34;;;;;;;;;;;;;;;1.86;69.56;99827.22;5091717;28;791;-71
2023/03/31 01:55:08;;;;;;;;;;;;;;;1.74;70.73;99825.31;5092060;28;854;-71
2023/03/31 01:57:40;;;;;;;;;;;;;;;1.75;71.14;99824.19;5092235;28;829;-71
2023/03/31 02:00:12;;;;;;;;;;;;;;;1.73;71.49;99830.00;5092059;28;869;-71
2023/03/31 02:02:54;;;;;;;;;;;;;;;1.74;71.13;99830.78;5091802;28;1882;-71
2023/03/31 02:05:24;;;;;;;;;;;;;;;1.66;71.37;99818.84;5090659;28;1147;-72
2023/03/31 02:07:56;;;;;;;;;;;;;;;1.68;71.67;99811.13;5091839;28;799;-72
2023/03/31 02:10:24;;;;;;;;;;;;;;;1.76;71.45;99815.66;5091907;28;876;-72
2023/03/31 02:12:52;;;;;;;;;;;;;;;1.81;71.65;99806.47;5091789;28;802;-72
2023/03/31 02:15:22;;;;;;;;;;;;;;;1.86;71.30;99805.41;5091822;28;882;-72
2023/03/31 02:17:50;;;;;;;;;;;;;;;1.90;71.30;99789.97;5091756;28;882;-72
2023/03/31 02:20:19;;;;;;;;;;;;;;;1.93;71.40;99798.25;5091853;28;818;-72
2023/03/31 02:22:47;;;;;;;;;;;;;;;1.96;71.98;99797.59;5091548;28;1965;-71
2023/03/31 02:25:16;;;;;;;;;;;;;;;1.93;72.19;99794.75;5091869;28;822;-71
2023/03/31 02:27:45;;;;;;;;;;;;;;;1.79;73.03;99790.47;5091679;28;802;-72
2023/03/31 02:30:12;;;;;;;;;;;;;;;1.68;73.25;99786.59;5091935;28;771;-71
2023/03/31 02:32:40;;;;;;;;;;;;;;;1.55;74.34;99782.31;5091670;28;905;-71
2023/03/31 02:35:11;;;;;;;;;;;;;;;1.43;75.28;99786.66;5091547;28;881;-71
2023/03/31 02:37:38;;;;;;;;;;;;;;;1.33;76.19;99775.41;5091657;28;806;-71
2023/03/31 02:40:08;;;;;;;;;;;;;;;1.28;77.06;99776.44;5091504;28;946;-71
2023/03/31 02:42:36;;;;;;;;;;;;;;;1.27;77.84;99780.28;5090244;28;1914;-71
2023/03/31 02:45:26;;;;;;;;;;;;;;;1.34;78.16;99782.44;5091564;28;874;-70
2023/03/31 02:47:53;;;;;;;;;;;;;;;1.38;78.95;99775.19;5091299;28;1068;-71
2023/03/31 02:50:23;;;;;;;;;;;;;;;1.46;79.38;99773.47;5091516;28;792;-72
2023/03/31 02:52:56;;;;;;;;;;;;;;;1.58;79.53;99763.38;5090084;28;1317;-71
2023/03/31 02:55:43;;;;;;;;;;;;;;;1.73;80.01;99759.13;5091526;28;826;-72
2023/03/31 02:58:17;;;;;;;;;;;;;;;1.89;79.34;99761.13;5091494;28;813;-71
2023/03/31 03:00:58;;;;;;;;;;;;;;;1.95;79.27;99760.56;5091380;28;849;-71
2023/03/31 03:03:38;;;;;;;;;;;;;;;2.00;78.83;99754.84;5090054;28;1886;-71
2023/03/31 03:06:17;;;;;;;;;;;;;;;2.00;78.99;99764.97;5094873;28;888;-71
2023/03/31 03:09:01;;;;;;;;;;;;;;;1.98;79.13;99764.50;5095581;28;794;-71
2023/03/31 03:11:42;;;;;;;;;;;;;;;1.95;79.75;99757.81;5095249;28;821;-71
2023/03/31 03:14:25;;;;;;;;;;;;;;;1.96;80.00;99755.88;5095157;28;936;-72
2023/03/31 03:17:18;;;;;;;;;;;;;;;1.95;80.75;99746.13;5095091;28;802;-71
2023/03/31 03:19:50;;;;;;;;;;;;;;;1.99;81.43;99739.63;5094038;28;1499;-71
2023/03/31 03:22:17;;;;;;;;;;;;;;;2.11;81.32;99729.81;5094795;28;2001;-71
2023/03/31 03:24:43;;;;;;;;;;;;;;;2.22;80.54;99725.47;5095440;28;774;-71
2023/03/31 03:27:10;;;;;;;;;;;;;;;2.33;80.48;99718.38;5095069;28;861;-72
2023/03/31 03:29:36;;;;;;;;;;;;;;;2.43;79.77;99727.97;5095365;28;798;-72
2023/03/31 03:32:03;;;;;;;;;;;;;;;2.49;79.43;99726.56;5093938;28;1331;-72
2023/03/31 03:34:30;;;;;;;;;;;;;;;2.46;79.50;99719.09;5095175;28;795;-72
2023/03/31 03:36:56;;;;;;;;;;;;;;;2.38;79.33;99728.22;5095382;28;767;-72
2023/03/31 03:39:23;;;;;;;;;;;;;;;2.30;77.91;99726.44;5094633;28;961;-71
2023/03/31 03:41:49;;;;;;;;;;;;;;;2.19;76.50;99724.22;5094570;28;1894;-71
2023/03/31 03:44:15;;;;;;;;;;;;;;;2.10;75.93;99723.56;5094480;28;802;-71
2023/03/31 03:46:42;;;;;;;;;;;;;;;2.04;74.53;99716.78;5094589;28;902;-71
2023/03/31 03:49:08;;;;;;;;;;;;;;;2.03;73.25;99715.22;5094327;28;1051;-72
2023/03/31 03:51:35;;;;;;;;;;;;;;;2.02;72.37;99710.88;5094400;28;892;-72
2023/03/31 03:54:02;;;;;;;;;;;;;;;2.08;71.42;99706.78;5094536;28;853;-72
2023/03/31 03:56:28;;;;;;;;;;;;;;;2.11;70.89;99716.97;5094385;28;846;-72
2023/03/31 03:58:56;;;;;;;;;;;;;;;2.09;71.14;99713.00;5094255;28;915;-72
2023/03/31 04:01:23;;;;;;;;;;;;;;;2.05;70.41;99704.75;5094238;28;806;-72
2023/03/31 04:03:49;;;;;;;;;;;;;;;2.03;70.69;99704.31;5094092;28;1885;-72
2023/03/31 04:06:16;;;;;;;;;;;;;;;1.99;70.72;99709.66;5094344;28;822;-71
2023/03/31 04:08:42;;;;;;;;;;;;;;;1.91;71.50;99712.53;5094119;28;828;-71
2023/03/31 04:11:12;;;;;;;;;;;;;;;1.77;72.14;99726.53;5094038;28;818;-72
2023/03/31 04:13:39;;;;;;;;;;;;;;;1.70;72.91;99720.88;5093929;28;889;-73
2023/03/31 04:16:06;;;;;;;;;;;;;;;1.70;72.96;99716.22;5093690;28;794;-72
2023/03/31 04:18:35;;;;;;;;;;;;;;;1.79;72.75;99722.34;5093834;28;857;-72
2023/03/31 04:21:02;;;;;;;;;;;;;;;1.82;72.45;99735.25;5093987;28;928;-72
2023/03/31 04:23:30;;;;;;;;;;;;;;;1.90;72.48;99730.00;5093540;28;1971;-72
2023/03/31 04:25:56;;;;;;;;;;;;;;;2.08;71.59;99735.97;5094125;28;849;-72
2023/03/31 04:28:25;;;;;;;;;;;;;;;2.17;71.14;99729.22;5092465;28;1705;-71
2023/03/31 04:30:57;;;;;;;;;;;;;;;2.25;70.34;99724.75;5093875;28;870;-73
2023/03/31 04:33:24;;;;;;;;;;;;;;;2.44;69.98;99719.44;5093843;28;853;-73
2023/03/31 04:35:51;;;;;;;;;;;;;;;2.55;68.82;99716.19;5093696;28;822;-73
2023/03/31 04:38:32;;;;;;;;;;;;;;;2.68;68.69;99727.81;5093641;28;806;-73
2023/03/31 04:40:58;;;;;;;;;;;;;;;2.77;69.27;99729.22;5093504;28;885;-73
2023/03/31 04:43:25;;;;;;;;;;;;;;;2.86;69.29;99716.22;5092245;28;1889;-73
2023/03/31 04:45:55;;;;;;;;;;;;;;;3.02;69.43;99718.13;5093501;28;802;-72
2023/03/31 04:48:21;;;;;;;;;;;;;;;3.08;70.08;99722.19;5094195;28;751;-72
2023/03/31 04:50:47;;;;;;;;;;;;;;;3.16;69.58;99713.03;5093240;28;835;-72
2023/03/31 04:53:13;;;;;;;;;;;;;;;3.11;69.50;99715.22;5093332;28;790;-72
2023/03/31 04:55:39;;;;;;;;;;;;;;;3.08;70.52;99714.00;5093147;28;821;-72
2023/03/31 04:58:06;;;;;;;;;;;;;;;3.14;71.05;99707.13;5093202;28;876;-72
2023/03/31 05:01:16;;;;;;;;;;;;;;;3.17;71.52;99711.09;5093306;28;821;-71
2023/03/31 05:03:46;;;;;;;;;;;;;;;3.29;72.04;99710.97;5091913;28;1959;-73
2023/03/31 05:06:14;;;;;;;;;;;;;;;3.43;72.47;99705.81;5093226;28;888;-73
2023/03/31 05:08:40;;;;;;;;;;;;;;;3.54;71.81;99705.25;5093298;28;1010;-72
2023/03/31 05:11:07;;;;;;;;;;;;;;;3.65;71.59;99700.84;5093286;28;806;-72
2023/03/31 05:13:33;;;;;;;;;;;;;;;3.77;72.27;99703.41;5093193;28;845;-72
2023/03/31 05:16:11;;;;;;;;;;;;;;;3.88;71.48;99698.16;5093002;28;849;-72
2023/03/31 05:18:37;;;;;;;;;;;;;;;3.93;72.12;99700.63;5092774;28;854;-72
2023/03/31 05:21:11;;;;;;;;;;;;;;;4.00;72.12;99691.78;5092990;28;1031;-72
2023/03/31 05:23:42;;;;;;;;;;;;;;;4.08;72.55;99685.28;5072290;28;1977;-73
2023/03/31 05:26:08;;;;;;;;;;;;;;;4.14;72.01;99680.31;5072887;28;857;-73
2023/03/31 05:28:35;;;;;;;;;;;;;;;4.22;71.74;99682.81;5070488;28;861;-73
2023/03/31 05:31:01;;;;;;;;;;;;;;;4.30;72.51;99673.59;5071471;28;893;-73
2023/03/31 05:33:28;;;;;;;;;;;;;;;4.40;71.74;99674.94;5072199;28;806;-72
2023/03/31 05:35:55;;;;;;;;;;;;;;;4.50;71.53;99668.06;5072152;28;881;-72
2023/03/31 05:38:22;;;;;;;;;;;;;;;4.56;72.47;99671.28;5072178;28;806;-72
2023/03/31 05:40:49;;;;;;;;;;;;;;;4.65;71.99;99669.91;5072060;28;862;-72
2023/03/31 05:43:16;;;;;;;;;;;;;;;4.78;71.44;99658.75;5070715;28;1882;-73
2023/03/31 05:45:42;;;;;;;;;;;;;;;4.92;71.69;99667.19;5071908;28;814;-72
2023/03/31 05:48:09;;;;;;;;;;;;;;;4.95;71.59;99661.00;5072064;28;877;-72
2023/03/31 05:50:35;;;;;;;;;;;;;;;5.04;70.99;99663.47;5071879;28;905;-73
2023/03/31 05:53:02;;;;;;;;;;;;;;;5.10;70.77;99662.78;5072046;28;826;-73
2023/03/31 05:55:28;;;;;;;;;;;;;;;5.19;70.63;99664.47;5070987;28;1439;-72
2023/03/31 05:57:55;;;;;;;;;;;;;;;5.44;69.89;99660.13;5071925;28;932;-72
2023/03/31 06:00:22;;;;;;;;;;;;;;;5.67;69.25;99661.97;5071876;28;905;-74
2023/03/31 06:02:50;;;;;;;;;;;;;;;5.97;68.37;99658.44;5070544;28;1941;-74
2023/03/31 06:05:16;;;;;;;;;;;;;;;6.26;67.51;99651.31;5071864;28;892;-74
2023/03/31 06:07:43;;;;;;;;;;;;;;;6.37;66.97;99651.41;5071850;28;850;-74
2023/03/31 06:10:09;;;;;;;;;;;;;;;6.68;66.18;99650.91;5072011;28;917;-74
2023/03/31 06:12:35;;;;;;;;;;;;;;;6.79;65.09;99650.22;5071936;28;853;-74
2023/03/31 06:15:02;;;;;;;;;;;;;;;7.15;64.20;99643.81;5072147;28;807;-74
2023/03/31 06:17:29;;;;;;;;;;;;;;;7.28;63.86;99647.03;5071602;28;834;-74
2023/03/31 06:19:56;;;;;;;;;;;;;;;7.65;62.78;99637.78;5071821;28;890;-73
2023/03/31 06:22:22;;;;;;;;;;;;;;;7.79;61.70;99645.31;5081039;28;1902;-73
2023/03/31 06:24:49;;;;;;;;;;;;;;;8.09;61.24;99649.72;5091841;28;889;-74
2023/03/31 06:27:15;;;;;;;;;;;;;;;8.15;60.30;99653.66;5091965;28;798;-73
2023/03/31 06:29:42;;;;;;;;;;;;;;;8.48;59.35;99644.31;5090607;28;1413;-72
2023/03/31 06:32:07;;;;;;;;;;;;;;;8.88;58.57;99645.13;5091838;28;842;-74
2023/03/31 06:34:34;;;;;;;;;;;;;;;8.96;58.23;99640.38;5091974;28;858;-74
2023/03/31 06:37:01;;;;;;;;;;;;;;;8.99;58.29;99650.63;5091705;28;790;-74
2023/03/31 06:39:28;;;;;;;;;;;;;;;9.12;58.08;99648.25;5094386;28;834;-74
2023/03/31 06:41:55;;;;;;;;;;;;;;;9.28;57.20;99656.06;5095813;28;1885;-74
2023/03/31 06:44:23;;;;;;;;;;;;;;;9.32;57.02;99649.38;5095761;28;842;-74
2023/03/31 06:46:50;;;;;;;;;;;;;;;9.24;57.11;99644.25;5095796;28;802;-71
2023/03/31 06:49:18;;;;;;;;;;;;;;;9.01;55.91;99634.47;5095901;28;884;-74
2023/03/31 06:51:45;;;;;;;;;;;;;;;9.13;56.39;99633.25;5096015;28;825;-74
2023/03/31 06:54:12;;;;;;;;;;;;;;;9.24;55.67;99633.22;5095579;28;854;-75
2023/03/31 06:59:25;;;;;;;;;;;;;;;9.72;56.39;99627.19;5095222;28;1091;-74
2023/03/31 07:01:52;;;;;;;;;;;;;;;10.19;54.52;99627.72;5095435;28;1988;-75
2023/03/31 07:04:19;;;;;;;;;;;;;;;10.46;52.94;99627.19;5095606;28;897;-74
2023/03/31 07:06:45;;;;;;;;;;;;;;;10.65;52.07;99621.13;5094026;28;1197;-74
2023/03/31 07:09:12;;;;;;;;;;;;;;;11.19;51.89;99623.38;5095484;28;870;-75
2023/03/31 07:11:39;;;;;;;;;;;;;;;11.45;50.25;99614.38;5095243;28;827;-74
2023/03/31 07:14:05;;;;;;;;;;;;;;;11.79;49.54;99616.34;5095265;28;790;-75
2023/03/31 07:16:32;;;;;;;;;;;;;;;11.63;49.89;99607.88;5095173;28;850;-74
2023/03/31 07:18:58;;;;;;;;;;;;;;;11.41;49.26;99612.84;5093748;28;1024;-74
2023/03/31 07:21:25;;;;;;;;;;;;;;;11.14;49.92;99618.31;5094799;28;1219;-73
2023/03/31 07:23:52;;;;;;;;;;;;;;;10.91;50.26;99613.41;5095008;28;1917;-74
2023/03/31 07:26:18;;;;;;;;;;;;;;;10.77;51.14;99622.59;5094875;28;831;-75
2023/03/31 07:28:45;;;;;;;;;;;;;;;10.52;51.45;99623.59;5095019;28;878;-74
2023/03/31 07:31:13;;;;;;;;;;;;;;;10.27;52.70;99629.25;5094852;28;948;-74
2023/03/31 07:33:39;;;;;;;;;;;;;;;10.07;54.27;99630.94;5094861;28;858;-72
2023/03/31 07:36:06;;;;;;;;;;;;;;;9.82;56.33;99631.88;5094760;28;798;-74
2023/03/31 07:38:35;;;;;;;;;;;;;;;9.61;58.55;99632.75;5094793;28;798;-73
2023/03/31 07:41:01;;;;;;;;;;;;;;;9.45;58.73;99633.16;5094719;28;853;-73
2023/03/31 07:43:28;;;;;;;;;;;;;;;9.17;59.06;99626.56;5094611;28;1897;-75
2023/03/31 07:45:55;;;;;;;;;;;;;;;8.91;62.12;99627.78;5094658;28;794;-75
2023/03/31 07:51:09;;;;;;;;;;;;;;;7.64;75.49;99618.88;5093984;28;750;-74
2023/03/31 07:53:35;;;;;;;;;;;;;;;7.12;84.97;99621.78;5093483;28;1346;-73
2023/03/31 07:56:02;;;;;;;;;;;;;;;6.75;92.98;99615.25;5094334;28;865;-73
2023/03/31 07:58:29;;;;;;;;;;;;;;;6.34;98.32;99614.53;5094531;28;877;-67
2023/03/31 08:00:56;;;;;;;;;;;;;;;6.09;100.00;99622.53;5094237;28;912;-67
2023/03/31 08:03:21;;;;;;;;;;;;;;;6.02;100.00;99622.47;5094123;28;1890;-64
2023/03/31 08:05:50;;;;;;;;;;;;;;;5.88;100.00;99623.84;5094146;28;798;-64
2023/03/31 08:08:17;;;;;;;;;;;;;;;5.83;100.00;99626.91;5094135;28;806;-64
2023/03/31 08:10:44;;;;;;;;;;;;;;;6.06;100.00;99624.06;5094045;28;791;-64
2023/03/31 08:13:11;;;;;;;;;;;;;;;6.04;100.00;99618.16;5094046;28;862;-63
2023/03/31 08:15:37;;;;;;;;;;;;;;;6.04;100.00;99623.66;5093992;28;799;-63
2023/03/31 08:18:05;;;;;;;;;;;;;;;6.17;100.00;99618.69;5094097;28;922;-64
2023/03/31 08:20:32;;;;;;;;;;;;;;;5.93;100.00;99626.25;5093937;28;806;-64
2023/03/31 08:22:59;;;;;;;;;;;;;;;5.79;100.00;99628.81;5093482;28;1902;-64
2023/03/31 08:25:26;;;;;;;;;;;;;;;5.75;100.00;99624.47;5094015;28;842;-64
2023/03/31 08:27:52;;;;;;;;;;;;;;;5.69;100.00;99613.81;5093717;28;868;-63
2023/03/31 08:30:19;;;;;;;;;;;;;;;5.69;100.00;99610.28;5093667;28;992;-62
2023/03/31 08:32:46;;;;;;;;;;;;;;;5.75;100.00;99613.50;5093753;28;850;-60
2023/03/31 08:35:13;;;;;;;;;;;;;;;5.99;100.00;99607.50;5093638;28;849;-61
2023/03/31 08:37:40;;;;;;;;;;;;;;;6.36;100.00;99608.66;5093662;28;874;-61
2023/03/31 08:40:11;;;;;;;;;;;;;;;6.90;100.00;99601.63;5093563;28;794;-61
2023/03/31 08:42:50;;;;;;;;;;;;;;;7.09;100.00;99601.34;5093338;28;1891;-60
2023/03/31 08:45:26;;;;;;;;;;;;;;;7.06;100.00;99601.31;5093374;28;1052;-61
2023/03/31 08:47:56;;;;;;;;;;;;;;;7.28;100.00;99599.50;5093236;28;810;-61
2023/03/31 08:50:26;;;;;;;;;;;;;;;7.25;100.00;99592.00;5093278;28;814;-61
2023/03/31 08:53:13;;;;;;;;;;;;;;;7.45;100.00;99589.75;5091992;28;2494;-61
2023/03/31 08:55:50;;;;;;;;;;;;;;;7.55;100.00;99578.00;5093214;28;1536;-62
2023/03/31 08:58:26;;;;;;;;;;;;;;;7.58;100.00;99585.50;5093293;28;818;-61
2023/03/31 09:01:00;;;;;;;;;;;;;;;7.56;100.00;99582.34;5093338;28;845;-61
2023/03/31 09:03:47;;;;;;;;;;;;;;;7.53;100.00;99578.41;5092048;28;1893;-62
2023/03/31 09:06:22;;;;;;;;;;;;;;;7.29;100.00;99577.09;5093272;28;798;-62
2023/03/31 09:08:51;;;;;;;;;;;;;;;7.30;100.00;99575.94;5092968;28;826;-62
2023/03/31 09:11:36;;;;;;;;;;;;;;;7.42;100.00;99560.28;5092840;28;845;-62
2023/03/31 09:14:08;;;;;;;;;;;;;;;7.32;100.00;99548.06;5092908;28;900;-62
2023/03/31 09:16:35;;;;;;;;;;;;;;;7.45;100.00;99552.03;5092777;28;881;-62
2023/03/31 09:19:02;;;;;;;;;;;;;;;7.64;100.00;99553.69;5092690;28;882;-62
2023/03/31 09:21:37;;;;;;;;;;;;;;;7.91;100.00;99551.38;5092486;28;1304;-62
2023/03/31 09:24:07;;;;;;;;;;;;;;;8.03;100.00;99552.19;5092587;28;1914;-63
2023/03/31 09:26:46;;;;;;;;;;;;;;;8.20;100.00;99550.63;5092682;28;822;-61
2023/03/31 09:29:19;;;;;;;;;;;;;;;8.14;100.00;99541.97;5092597;28;811;-62
2023/03/31 09:31:46;;;;;;;;;;;;;;;8.26;100.00;99535.31;5092522;28;849;-62
2023/03/31 09:34:18;;;;;;;;;;;;;;;8.27;100.00;99531.34;5092428;28;940;-63
2023/03/31 09:36:45;;;;;;;;;;;;;;;8.56;100.00;99516.41;5092788;28;798;-63
2023/03/31 09:39:13;;;;;;;;;;;;;;;9.02;100.00;99523.00;5092827;28;842;-64
2023/03/31 10:10:30;;;;;;;;;;;;;;;8.74;100.00;99527.41;5111245;22;1888;-57
2023/03/31 10:12:57;;;;;;;;;;;;;;;8.66;100.00;99514.03;5051399;28;830;-57
2023/03/31 10:15:26;;;;;;;;;;;;;;;8.58;100.00;99510.53;5051826;28;814;-57
2023/03/31 10:17:53;;;;;;;;;;;;;;;8.69;100.00;99505.78;5052496;28;821;-56
2023/03/31 10:20:26;;;;;;;;;;;;;;;8.91;100.00;99502.97;5051818;28;826;-56
2023/03/31 10:22:53;;;;;;;;;;;;;;;8.99;100.00;99499.78;5051542;28;1973;-57
2023/03/31 10:25:26;;;;;;;;;;;;;;;9.22;100.00;99495.78;5051618;28;2052;-55
2023/03/31 10:27:54;;;;;;;;;;;;;;;9.34;100.00;99492.53;5051391;28;930;-56
2023/03/31 10:30:22;;;;;;;;;;;;;;;9.72;100.00;99475.38;5050099;28;1222;-55
2023/03/31 10:32:50;;;;;;;;;;;;;;;9.93;100.00;99468.94;5051368;28;917;-55
2023/03/31 10:35:31;;;;;;;;;;;;;;;10.39;100.00;99467.75;5051446;28;908;-56
2023/03/31 10:38:01;;;;;;;;;;;;;;;10.36;100.00;99463.06;5051224;28;946;-55
2023/03/31 10:40:30;;;;;;;;;;;;;;;10.20;100.00;99460.84;5051323;28;885;-54
2023/03/31 10:43:19;;;;;;;;;;;;;;;10.17;100.00;99456.88;5051205;28;1910;-56
2023/03/31 10:45:49;;;;;;;;;;;;;;;9.97;100.00;99451.16;5051261;28;933;-56
2023/03/31 10:48:17;;;;;;;;;;;;;;;9.82;100.00;99441.41;5051166;28;941;-56
2023/03/31 10:50:44;;;;;;;;;;;;;;;9.93;100.00;99435.81;5051293;28;885;-57
2023/03/31 10:53:13;;;;;;;;;;;;;;;10.22;100.00;99431.59;5051195;28;944;-55
2023/03/31 10:55:52;;;;;;;;;;;;;;;10.57;100.00;99431.69;5051175;28;806;-56
2023/03/31 10:58:32;;;;;;;;;;;;;;;10.83;100.00;99417.16;5051217;28;873;-55
2023/03/31 11:01:05;;;;;;;;;;;;;;;11.15;100.00;99418.72;5051193;28;850;-55
2023/03/31 11:03:48;;;;;;;;;;;;;;;11.57;100.00;99413.78;5051036;28;1886;-55
2023/03/31 11:06:32;;;;;;;;;;;;;;;11.69;100.00;99411.63;5051189;28;854;-56
2023/03/31 11:09:14;;;;;;;;;;;;;;;12.13;100.00;99407.75;5050931;28;1202;-56
2023/03/31 11:12:01;;;;;;;;;;;;;;;12.33;100.00;99404.25;5050909;28;898;-57
2023/03/31 11:14:57;;;;;;;;;;;;;;;12.29;100.00;99398.78;5051014;28;870;-55
2023/03/31 11:17:26;;;;;;;;;;;;;;;12.36;100.00;99389.56;5042285;28;1409;-57
2023/03/31 11:19:55;;;;;;;;;;;;;;;12.49;100.00;99384.94;5051075;28;826;-57
2023/03/31 11:22:36;;;;;;;;;;;;;;;13.17;100.00;99382.75;5051004;28;1906;-56
2023/03/31 11:25:09;;;;;;;;;;;;;;;13.80;100.00;99373.38;5051147;28;790;-57
2023/03/31 11:27:48;;;;;;;;;;;;;;;14.44;97.63;99374.44;5054599;28;905;-56
2023/03/31 11:30:23;;;;;;;;;;;;;;;14.37;95.77;99376.66;5054514;28;875;-57
2023/03/31 11:33:16;;;;;;;;;;;;;;;14.06;95.60;99372.31;5054940;28;869;-54
2023/03/31 11:35:58;;;;;;;;;;;;;;;14.52;94.26;99365.94;5054579;28;807;-54
2023/03/31 11:38:32;;;;;;;;;;;;;;;14.71;91.54;99359.44;5054509;28;897;-53
2023/03/31 11:41:07;;;;;;;;;;;;;;;14.58;88.18;99362.19;5054383;28;1169;-53
2023/03/31 11:43:35;;;;;;;;;;;;;;;14.16;87.16;99353.00;5054212;28;1902;-49
2023/03/31 11:46:11;;;;;;;;;;;;;;;13.74;89.90;99350.91;5054234;28;961;-52
2023/03/31 11:48:43;;;;;;;;;;;;;;;13.94;91.03;99350.78;5054259;28;854;-52
2023/03/31 11:51:14;;;;;;;;;;;;;;;14.07;90.32;99343.28;5054175;28;1258;-53
2023/03/31 11:53:42;;;;;;;;;;;;;;;14.60;87.31;99333.97;5054120;28;944;-51
2023/03/31 11:56:10;;;;;;;;;;;;;;;14.61;84.53;99329.94;5054436;28;806;-50
2023/03/31 11:58:40;;;;;;;;;;;;;;;14.34;86.23;99333.06;5054334;28;874;-48
2023/03/31 12:01:25;;;;;;;;;;;;;;;13.92;86.23;99335.78;5053937;28;851;-51
2023/03/31 12:04:00;;;;;;;;;;;;;;;13.28;86.24;99336.91;5053930;28;1935;-48
2023/03/31 12:06:32;;;;;;;;;;;;;;;13.02;89.22;99322.03;5053927;28;805;-49
2023/03/31 12:09:08;;;;;;;;;;;;;;;13.14;89.90;99317.78;5052765;28;1193;-54
2023/03/31 12:11:35;;;;;;;;;;;;;;;13.39;87.30;99310.91;5053909;28;844;-54
2023/03/31 12:14:20;;;;;;;;;;;;;;;13.59;89.06;99308.03;5053861;28;821;-53
2023/03/31 12:16:51;;;;;;;;;;;;;;;13.75;87.39;99305.25;5053640;28;890;-54
2023/03/31 12:19:41;;;;;;;;;;;;;;;13.60;88.46;99310.38;5053756;28;814;-51
2023/03/31 12:22:19;;;;;;;;;;;;;;;13.28;89.37;99305.59;5048112;28;1972;-52
2023/03/31 12:24:47;;;;;;;;;;;;;;;12.95;90.00;99304.75;5053687;28;798;-54
2023/03/31 12:27:31;;;;;;;;;;;;;;;12.72;90.21;99302.91;5053502;28;865;-52
2023/03/31 12:30:02;;;;;;;;;;;;;;;12.24;87.17;99305.81;5053455;28;1016;-56
2023/03/31 12:32:32;;;;;;;;;;;;;;;12.03;90.64;99317.31;5053439;28;937;-56
2023/03/31 12:35:01;;;;;;;;;;;;;;;11.92;91.82;99308.44;5053395;28;841;-55
2023/03/31 12:37:33;;;;;;;;;;;;;;;11.86;94.31;99305.31;5053052;28;869;-56
2023/03/31 12:40:15;;;;;;;;;;;;;;;11.86;94.95;99302.56;5053598;28;814;-55
2023/03/31 12:42:51;;;;;;;;;;;;;;;11.89;94.20;99293.44;5053352;28;1893;-54
2023/03/31 12:45:26;;;;;;;;;;;;;;;12.10;92.33;99297.00;5053084;28;847;-54
2023/03/31 12:48:11;;;;;;;;;;;;;;;12.42;91.60;99301.94;5053192;28;814;-56
2023/03/31 12:50:52;;;;;;;;;;;;;;;12.85;92.05;99301.03;5051794;28;1339;-55
2023/03/31 12:53:38;;;;;;;;;;;;;;;12.96;90.01;99284.16;5068666;28;877;-56
2023/03/31 12:56:05;;;;;;;;;;;;;;;13.08;91.13;99272.38;5053594;28;858;-55
2023/03/31 12:58:36;;;;;;;;;;;;;;;13.23;93.08;99281.13;5053068;28;865;-56
2023/03/31 13:01:13;;;;;;;;;;;;;;;13.25;94.87;99267.63;5053147;28;858;-56
2023/03/31 13:03:51;;;;;;;;;;;;;;;13.22;94.10;99263.69;5052678;28;1964;-56
2023/03/31 13:06:30;;;;;;;;;;;;;;;13.21;88.89;99261.38;5068176;28;810;-56
2023/03/31 13:08:57;;;;;;;;;;;;;;;13.58;88.76;99250.94;5052519;28;1372;-55
2023/03/31 13:11:35;;;;;;;;;;;;;;;13.87;86.93;99250.97;5068018;28;932;-55
2023/03/31 13:14:03;;;;;;;;;;;;;;;13.93;80.17;99243.66;5052618;28;819;-56
2023/03/31 13:16:30;;;;;;;;;;;;;;;13.87;76.93;99234.31;5052472;28;874;-57
2023/03/31 13:18:56;;;;;;;;;;;;;;;14.08;75.64;99230.94;5052629;28;1758;-56
2023/03/31 13:21:23;;;;;;;;;;;;;;;14.78;77.93;99234.06;5067809;28;865;-53
2023/03/31 13:23:52;;;;;;;;;;;;;;;15.25;74.53;99236.13;5052359;28;1914;-52
2023/03/31 13:26:36;;;;;;;;;;;;;;;15.14;71.55;99230.13;5052021;28;1542;-54
2023/03/31 13:29:12;;;;;;;;;;;;;;;15.34;72.18;99215.19;5052403;28;798;-53
2023/03/31 13:31:57;;;;;;;;;;;;;;;15.32;71.56;99221.97;5052306;28;814;-54
2023/03/31 13:34:27;;;;;;;;;;;;;;;15.79;71.49;99214.03;5052292;28;857;-54
2023/03/31 13:36:58;;;;;;;;;;;;;;;15.87;70.41;99220.91;5052187;28;854;-49
2023/03/31 13:39:30;;;;;;;;;;;;;;;15.69;68.26;99210.41;5052204;28;857;-54
2023/03/31 13:42:15;;;;;;;;;;;;;;;15.40;69.45;99205.03;5052470;28;958;-53
2023/03/31 13:44:55;;;;;;;;;;;;;;;15.41;71.87;99198.25;5052100;28;877;-52
2023/03/31 13:47:28;;;;;;;;;;;;;;;15.47;72.31;99200.00;5051994;28;803;-52
2023/03/31 13:50:24;;;;;;;;;;;;;;;15.39;68.79;99193.13;5051666;28;814;-53
2023/03/31 13:53:20;;;;;;;;;;;;;;;15.36;70.75;99196.78;5042869;28;1411;-52
2023/03/31 13:56:06;;;;;;;;;;;;;;;15.31;70.84;99200.91;5051840;28;897;-54
2023/03/31 13:58:47;;;;;;;;;;;;;;;15.43;71.01;99191.00;5052016;28;880;-52
2023/03/31 14:01:32;;;;;;;;;;;;;;;15.63;71.23;99184.34;5067288;28;802;-53
2023/03/31 14:04:13;;;;;;;;;;;;;;;15.77;72.22;99192.22;5052615;28;1879;-54
2023/03/31 14:06:40;;;;;;;;;;;;;;;16.72;69.38;99185.47;5051668;28;868;-53